Time;durP1;ratioP1;P1;durP2;ratioP2;P2;SDS_P1;SDS_P2;PMS_P1;PMS_P2;Temp;Humidity;BMP_temperature;BMP_pressure;BME280_temperature;BME280_humidity;BME280_pressure;Samples;Min_cycle;Max_cycle;Signal;HPM_P1;HPM_P2
2022/12/26 00:00:02;;;;;;;13.70;13.10;;;11.40;99.90;;;;;;6212095;23;21074;-76
2022/12/26 00:02:30;;;;;;;13.50;12.90;;;12.10;99.90;;;;;;6212156;23;20413;-76
2022/12/26 00:04:57;;;;;;;13.97;13.27;;;11.30;99.90;;;;;;6211796;23;20401;-76
2022/12/26 00:07:25;;;;;;;14.43;13.77;;;11.30;99.90;;;;;;6212060;23;20451;-77
2022/12/26 00:09:52;;;;;;;13.80;13.10;;;11.20;99.90;;;;;;6211981;23;20409;-77
2022/12/26 00:12:19;;;;;;;13.77;13.20;;;11.40;99.90;;;;;;6211920;23;20420;-77
2022/12/26 00:14:45;;;;;;;14.60;13.63;;;11.40;99.90;;;;;;6212425;23;20409;-77
2022/12/26 00:17:12;;;;;;;14.53;13.77;;;11.50;99.90;;;;;;6209374;23;20420;-77
2022/12/26 00:19:39;;;;;;;14.07;13.27;;;11.50;99.90;;;;;;6212456;23;20400;-75
2022/12/26 00:22:05;;;;;;;13.50;12.83;;;11.60;99.90;;;;;;6212405;23;20439;-76
2022/12/26 00:24:33;;;;;;;13.37;12.77;;;11.70;99.90;;;;;;6209644;23;20451;-75
2022/12/26 00:27:00;;;;;;;13.03;12.43;;;11.60;99.90;;;;;;6211979;23;20464;-76
2022/12/26 00:29:27;;;;;;;13.90;13.20;;;11.60;99.90;;;;;;6211993;23;20735;-77
2022/12/26 00:31:54;;;;;;;13.77;13.17;;;11.70;99.90;;;;;;6211663;23;20424;-78
2022/12/26 00:34:20;;;;;;;13.57;12.87;;;11.70;99.90;;;;;;6211604;23;20416;-75
2022/12/26 00:36:47;;;;;;;13.33;12.63;;;11.80;99.90;;;;;;6211757;23;20413;-76
2022/12/26 00:39:16;;;;;;;12.63;12.10;;;11.90;99.90;;;;;;6211894;23;20413;-76
2022/12/26 00:41:44;;;;;;;13.10;12.50;;;11.90;99.90;;;;;;6211522;23;20448;-76
2022/12/26 00:44:11;;;;;;;12.03;11.63;;;11.90;99.90;;;;;;6211674;23;21124;-76
2022/12/26 00:46:37;;;;;;;12.50;11.97;;;11.90;99.90;;;;;;6212403;23;20503;-75
2022/12/26 00:49:04;;;;;;;12.73;11.93;;;11.90;99.90;;;;;;6213964;23;20753;-75
2022/12/26 00:51:31;;;;;;;13.27;12.57;;;11.80;99.90;;;;;;6214053;23;20410;-77
2022/12/26 00:53:57;;;;;;;13.17;12.63;;;11.80;99.90;;;;;;6213456;23;20498;-77
2022/12/26 00:56:24;;;;;;;13.70;13.10;;;11.70;99.90;;;;;;6213690;23;20740;-77
2022/12/26 00:58:52;;;;;;;13.60;12.93;;;11.70;99.90;;;;;;6213753;23;20397;-76
2022/12/26 01:01:21;;;;;;;13.23;12.63;;;11.60;99.90;;;;;;6213434;23;20467;-76
2022/12/26 01:03:49;;;;;;;13.70;13.07;;;11.60;99.90;;;;;;6213893;23;20421;-77
2022/12/26 01:06:16;;;;;;;13.87;13.07;;;11.50;99.90;;;;;;6213849;23;20405;-77
2022/12/26 01:08:43;;;;;;;14.23;13.53;;;11.50;99.90;;;;;;6213508;23;20458;-76
2022/12/26 01:11:13;;;;;;;15.20;14.40;;;11.40;99.90;;;;;;6213284;23;20912;-76
2022/12/26 01:13:39;;;;;;;15.60;14.87;;;11.30;99.90;;;;;;6213543;23;20409;-76
2022/12/26 01:16:08;;;;;;;15.00;14.33;;;11.10;99.90;;;;;;6213102;23;20408;-77
2022/12/26 01:18:35;;;;;;;15.47;14.67;;;10.90;99.90;;;;;;6213764;23;20427;-78
2022/12/26 01:21:04;;;;;;;15.47;14.77;;;10.80;99.90;;;;;;6214228;23;20409;-79
2022/12/26 01:23:31;;;;;;;16.30;15.40;;;10.70;99.90;;;;;;6213243;23;20437;-75
2022/12/26 01:25:57;;;;;;;16.17;15.37;;;10.60;99.90;;;;;;6212532;23;20726;-75
2022/12/26 01:28:24;;;;;;;15.10;14.40;;;10.60;99.90;;;;;;6212097;23;20486;-76
2022/12/26 01:30:51;;;;;;;14.83;13.77;;;10.60;99.90;;;;;;6211316;23;20415;-77
2022/12/26 01:33:19;;;;;;;16.00;15.10;;;10.60;99.90;;;;;;6211759;23;20440;-76
2022/12/26 01:35:50;;;;;;;15.87;15.07;;;10.60;99.90;;;;;;6211353;23;20413;-75
2022/12/26 01:38:17;;;;;;;16.10;15.30;;;10.50;99.90;;;;;;6211584;23;20437;-76
2022/12/26 01:40:45;;;;;;;15.73;14.53;;;10.50;99.90;;;;;;6211830;23;20412;-76
2022/12/26 01:43:13;;;;;;;16.20;15.50;;;10.50;99.90;;;;;;6211328;23;20409;-76
2022/12/26 01:45:40;;;;;;;15.50;14.80;;;10.50;99.90;;;;;;6211333;23;20614;-76
2022/12/26 01:48:15;;;;;;;15.80;15.10;;;10.50;99.90;;;;;;6211070;23;20441;-75
2022/12/26 01:50:48;;;;;;;16.67;15.90;;;10.40;99.90;;;;;;6211282;23;20396;-76
2022/12/26 01:53:20;;;;;;;16.67;15.83;;;10.40;99.90;;;;;;6211049;23;20405;-75
2022/12/26 01:55:51;;;;;;;16.70;15.80;;;10.40;99.90;;;;;;6211492;23;20463;-76
2022/12/26 01:58:23;;;;;;;16.10;15.30;;;10.40;99.90;;;;;;6211047;23;20400;-76
2022/12/26 02:00:50;;;;;;;15.87;14.97;;;10.40;99.90;;;;;;6211176;23;20389;-77
2022/12/26 02:06:03;;;;;;;16.73;15.90;;;10.30;99.90;;;;;;6211440;23;20510;-77
2022/12/26 02:08:34;;;;;;;16.77;15.97;;;10.30;99.90;;;;;;6210815;23;20990;-77
2022/12/26 02:11:10;;;;;;;16.60;15.70;;;10.50;99.90;;;;;;6210788;23;20897;-76
2022/12/26 02:13:38;;;;;;;17.20;16.00;;;10.30;99.90;;;;;;6211026;23;20388;-75
2022/12/26 02:16:08;;;;;;;17.10;16.00;;;10.30;99.90;;;;;;6210657;23;20417;-75
2022/12/26 02:18:35;;;;;;;16.33;15.53;;;10.40;99.90;;;;;;6210530;23;20409;-76
2022/12/26 02:21:26;;;;;;;17.20;16.30;;;10.40;99.90;;;;;;6211119;23;20420;-76
2022/12/26 02:24:28;;;;;;;17.70;16.80;;;10.40;99.90;;;;;;6210389;23;20527;-76
2022/12/26 02:27:11;;;;;;;17.10;16.20;;;10.40;99.90;;;;;;6210717;23;20408;-76
2022/12/26 02:29:59;;;;;;;16.27;15.37;;;10.40;99.90;;;;;;6210791;23;20404;-75
2022/12/26 02:32:42;;;;;;;17.00;16.20;;;10.40;99.90;;;;;;6210727;23;20389;-76
2022/12/26 02:35:19;;;;;;;17.03;16.17;;;10.40;99.90;;;;;;6210957;23;20501;-75
2022/12/26 02:37:56;;;;;;;17.00;16.20;;;10.40;99.90;;;;;;6211023;23;20415;-76
2022/12/26 02:40:38;;;;;;;16.53;15.73;;;10.40;99.90;;;;;;6210575;23;20654;-76
2022/12/26 02:43:12;;;;;;;17.63;16.63;;;10.50;99.90;;;;;;6210693;23;20404;-76
2022/12/26 02:48:40;;;;;;;16.33;15.40;;;10.50;99.90;;;;;;6210250;23;20459;-76
2022/12/26 03:13:53;;;;;;;15.03;14.27;;;11.20;99.90;;;;;;6211144;23;20377;-76
2022/12/26 03:19:11;;;;;;;15.37;14.53;;;11.20;99.90;;;;;;6210867;23;20464;-76
2022/12/26 03:21:42;;;;;;;15.73;14.93;;;11.20;99.90;;;;;;6210759;23;20879;-76
2022/12/26 03:24:11;;;;;;;15.20;14.50;;;11.20;99.90;;;;;;6210881;23;20436;-76
2022/12/26 03:26:46;;;;;;;14.53;13.93;;;11.30;99.90;;;;;;6211164;23;20400;-76
2022/12/26 03:32:06;;;;;;;14.73;14.03;;;11.50;99.90;;;;;;6184745;23;20411;-75
2022/12/26 03:34:37;;;;;;;14.47;13.77;;;11.60;99.90;;;;;;6211312;23;20417;-77
2022/12/26 03:37:31;;;;;;;14.47;13.73;;;11.70;99.90;;;;;;6211412;23;20385;-76
2022/12/26 04:20:05;;;;;;;16.30;15.40;;;10.60;99.90;;;;;;6210482;23;20373;-76
2022/12/26 04:45:04;;;;;;;14.70;14.00;;;10.90;99.90;;;;;;6210756;23;20904;-75
2022/12/26 04:47:32;;;;;;;16.20;15.30;;;11.00;99.90;;;;;;6210892;23;20409;-75
2022/12/26 04:50:13;;;;;;;15.50;14.50;;;11.10;99.90;;;;;;6210938;23;20417;-77
2022/12/26 04:53:00;;;;;;;15.93;15.13;;;11.10;99.90;;;;;;6210628;23;20727;-77
2022/12/26 04:55:28;;;;;;;15.43;14.63;;;11.10;99.90;;;;;;6210321;23;20377;-74
2022/12/26 04:57:55;;;;;;;15.47;14.63;;;11.10;99.90;;;;;;6210172;23;20557;-75
2022/12/26 05:00:26;;;;;;;16.07;15.27;;;11.10;99.90;;;;;;6210466;23;20509;-75
2022/12/26 05:11:14;;;;;;;15.00;14.40;;;11.10;99.90;;;;;;6210614;23;20404;-78
2022/12/26 05:13:40;;;;;;;15.80;15.07;;;11.00;99.90;;;;;;6210343;23;20459;-77
2022/12/26 05:30:05;;;;;;;15.83;14.93;;;11.10;99.90;;;;;;6210454;23;20384;-78
2022/12/26 05:35:18;;;;;;;15.90;15.10;;;11.20;99.90;;;;;;6211969;23;20377;-77
2022/12/26 05:37:44;;;;;;;16.67;15.77;;;11.30;99.90;;;;;;6211739;23;20417;-77
2022/12/26 05:40:12;;;;;;;15.60;14.80;;;11.20;99.90;;;;;;6211682;23;20400;-77
2022/12/26 05:42:38;;;;;;;16.17;15.20;;;11.20;99.90;;;;;;6211702;23;20413;-77
2022/12/26 05:45:06;;;;;;;16.83;15.50;;;11.10;99.90;;;;;;6211876;23;20405;-77
2022/12/26 05:47:34;;;;;;;16.53;15.73;;;11.10;99.90;;;;;;6211907;23;20409;-78
2022/12/26 05:50:01;;;;;;;16.27;15.37;;;11.10;99.90;;;;;;6211477;23;20437;-77
2022/12/26 05:52:28;;;;;;;16.77;15.90;;;11.10;99.90;;;;;;6211360;23;20412;-77
2022/12/26 05:54:54;;;;;;;17.57;16.50;;;11.10;99.90;;;;;;6211435;23;20753;-76
2022/12/26 05:57:21;;;;;;;17.10;16.13;;;11.10;99.90;;;;;;6211602;23;20442;-76
2022/12/26 05:59:48;;;;;;;16.20;15.27;;;11.20;99.90;;;;;;6211863;23;20405;-77
2022/12/26 06:02:14;;;;;;;17.37;16.23;;;11.20;99.90;;;;;;6211495;23;20416;-77
2022/12/26 06:04:42;;;;;;;16.60;15.80;;;11.20;99.90;;;;;;6211664;23;20523;-78
2022/12/26 06:07:09;;;;;;;16.30;15.40;;;11.20;99.90;;;;;;6211279;23;20420;-75
2022/12/26 06:09:36;;;;;;;16.63;15.70;;;11.20;99.90;;;;;;6210306;23;20452;-75
2022/12/26 06:12:03;;;;;;;16.50;15.70;;;11.20;99.90;;;;;;6210880;23;20431;-75
2022/12/26 06:14:29;;;;;;;18.63;17.53;;;11.10;99.90;;;;;;6210259;23;20416;-75
2022/12/26 06:16:56;;;;;;;16.30;15.50;;;11.10;99.90;;;;;;6209577;23;20439;-75
2022/12/26 06:19:23;;;;;;;18.50;17.50;;;11.10;99.90;;;;;;6210199;23;20412;-76
2022/12/26 06:21:51;;;;;;;18.80;17.70;;;11.00;99.90;;;;;;6210155;23;20413;-76
2022/12/26 06:24:17;;;;;;;18.60;17.60;;;11.00;99.90;;;;;;6210062;23;20440;-75
2022/12/26 06:26:44;;;;;;;17.17;16.13;;;11.00;99.90;;;;;;6210319;23;20431;-76
2022/12/26 06:29:11;;;;;;;18.90;17.70;;;11.00;99.90;;;;;;6209727;23;20999;-75
2022/12/26 06:31:37;;;;;;;18.40;17.30;;;11.00;99.90;;;;;;6209713;23;20428;-75
2022/12/26 06:34:04;;;;;;;17.30;16.40;;;10.90;99.90;;;;;;6209646;23;20408;-75
2022/12/26 06:36:31;;;;;;;19.50;18.07;;;10.90;99.90;;;;;;6210115;23;20512;-78
2022/12/26 06:39:00;;;;;;;18.03;16.87;;;10.90;99.90;;;;;;6210017;23;20401;-78
2022/12/26 06:41:26;;;;;;;18.13;16.83;;;10.90;99.90;;;;;;6210333;23;20435;-78
2022/12/26 06:43:54;;;;;;;17.20;16.30;;;10.90;99.90;;;;;;6210923;23;20409;-78
2022/12/26 06:46:23;;;;;;;17.50;16.50;;;10.90;99.90;;;;;;6211512;23;20740;-76
2022/12/26 06:48:50;;;;;;;17.60;16.70;;;10.90;99.90;;;;;;6210470;23;20452;-75
2022/12/26 06:51:19;;;;;;;17.40;16.40;;;10.90;99.90;;;;;;6210172;23;20478;-76
2022/12/26 06:53:46;;;;;;;18.10;16.67;;;10.90;99.90;;;;;;6210287;23;20416;-76
2022/12/26 06:56:16;;;;;;;17.63;16.57;;;11.00;99.90;;;;;;6209961;23;20408;-76
2022/12/26 06:58:44;;;;;;;17.47;16.47;;;10.90;99.90;;;;;;6209466;23;20905;-76
2022/12/26 07:01:13;;;;;;;17.60;16.60;;;10.90;99.90;;;;;;6210408;23;20853;-77
2022/12/26 07:03:40;;;;;;;17.70;16.60;;;10.90;99.90;;;;;;6210570;23;20535;-77
2022/12/26 07:06:11;;;;;;;16.77;15.87;;;10.90;99.90;;;;;;6210895;23;20757;-76
2022/12/26 07:08:38;;;;;;;18.43;17.43;;;10.90;99.90;;;;;;6210869;23;20443;-75
2022/12/26 07:11:12;;;;;;;16.60;15.80;;;10.90;99.90;;;;;;6210842;23;20412;-76
2022/12/26 07:13:40;;;;;;;16.67;15.67;;;11.00;99.90;;;;;;6210688;23;20419;-77
2022/12/26 07:16:07;;;;;;;16.60;15.77;;;11.10;99.90;;;;;;6210711;23;20404;-77
2022/12/26 07:18:33;;;;;;;15.77;15.07;;;11.10;99.90;;;;;;6210984;23;20416;-77
2022/12/26 07:21:00;;;;;;;16.50;15.60;;;11.10;99.90;;;;;;6210770;23;20409;-75
2022/12/26 07:23:28;;;;;;;15.33;14.63;;;11.10;99.90;;;;;;6209986;23;20448;-75
2022/12/26 07:25:55;;;;;;;15.70;14.50;;;11.10;99.90;;;;;;6210243;23;20539;-75
2022/12/26 07:28:21;;;;;;;14.60;13.90;;;11.10;99.90;;;;;;6210428;23;20412;-77
2022/12/26 07:30:50;;;;;;;13.93;13.33;;;11.10;99.90;;;;;;6210846;23;20749;-75
2022/12/26 07:33:17;;;;;;;15.40;14.70;;;11.20;99.90;;;;;;6210512;23;20405;-75
2022/12/26 07:35:44;;;;;;;14.13;13.43;;;11.20;99.90;;;;;;6210328;23;20438;-76
2022/12/26 07:38:12;;;;;;;15.40;14.60;;;11.20;99.90;;;;;;6210347;23;20409;-77
2022/12/26 07:40:38;;;;;;;14.80;14.10;;;11.20;99.90;;;;;;6210043;23;20405;-75
2022/12/26 07:43:05;;;;;;;15.10;14.20;;;11.30;99.90;;;;;;6209910;23;20415;-76
2022/12/26 07:45:32;;;;;;;14.03;13.40;;;11.30;99.90;;;;;;6210562;23;20778;-76
2022/12/26 07:48:00;;;;;;;16.10;14.93;;;11.30;99.90;;;;;;6210248;23;20519;-77
2022/12/26 07:50:27;;;;;;;15.07;14.27;;;11.20;99.90;;;;;;6209960;23;20448;-76
2022/12/26 07:52:54;;;;;;;15.63;14.60;;;11.20;99.90;;;;;;6209965;23;20419;-75
2022/12/26 07:55:22;;;;;;;14.40;13.60;;;11.20;99.90;;;;;;6209750;23;20416;-76
2022/12/26 07:57:50;;;;;;;15.87;14.73;;;11.20;99.90;;;;;;6209305;23;20412;-76
2022/12/26 08:00:18;;;;;;;15.63;14.83;;;11.20;99.90;;;;;;6210276;23;20404;-76
2022/12/26 08:02:46;;;;;;;15.70;14.73;;;11.10;99.90;;;;;;6209940;23;20420;-76
2022/12/26 08:05:15;;;;;;;16.37;15.57;;;11.00;99.90;;;;;;6210099;23;20740;-78
2022/12/26 08:07:42;;;;;;;15.40;14.67;;;11.10;99.90;;;;;;6209694;23;20412;-76
2022/12/26 08:10:09;;;;;;;17.80;17.00;;;11.10;99.90;;;;;;6209739;23;20816;-75
2022/12/26 08:12:36;;;;;;;17.10;16.20;;;11.10;99.90;;;;;;6209811;23;20413;-74
2022/12/26 08:15:03;;;;;;;18.93;18.03;;;11.00;99.90;;;;;;6209904;23;20896;-74
2022/12/26 08:17:31;;;;;;;19.57;18.57;;;11.00;99.90;;;;;;6210092;23;20736;-73
2022/12/26 08:19:58;;;;;;;19.97;18.80;;;10.90;99.90;;;;;;6209552;23;21035;-73
2022/12/26 08:22:27;;;;;;;19.37;18.33;;;10.90;99.90;;;;;;6209415;23;21138;-74
2022/12/26 08:24:54;;;;;;;19.93;18.53;;;10.80;99.90;;;;;;6209387;23;20437;-74
2022/12/26 08:27:20;;;;;;;19.47;18.50;;;10.80;99.90;;;;;;6210383;23;20411;-75
2022/12/26 08:29:47;;;;;;;19.67;18.63;;;10.80;99.90;;;;;;6210346;23;20436;-74
2022/12/26 08:32:14;;;;;;;20.87;19.57;;;10.80;99.90;;;;;;6209701;23;20900;-73
2022/12/26 08:34:41;;;;;;;20.47;19.27;;;10.80;99.90;;;;;;6209942;23;20409;-74
2022/12/26 08:37:07;;;;;;;21.33;20.03;;;10.80;99.90;;;;;;6210393;23;20416;-74
2022/12/26 08:39:36;;;;;;;18.13;16.93;;;10.80;99.90;;;;;;6210083;23;20748;-75
2022/12/26 08:42:03;;;;;;;18.20;17.00;;;10.80;99.90;;;;;;6209798;23;20424;-75
2022/12/26 08:44:30;;;;;;;16.70;15.90;;;10.80;99.90;;;;;;6209810;23;20408;-75
2022/12/26 08:46:57;;;;;;;16.20;15.30;;;10.80;99.90;;;;;;6209887;23;20409;-76
2022/12/26 08:49:23;;;;;;;17.60;16.70;;;10.80;99.90;;;;;;6209630;23;20447;-76
2022/12/26 08:51:50;;;;;;;15.83;15.13;;;10.80;99.90;;;;;;6209537;23;20416;-75
2022/12/26 08:54:17;;;;;;;16.93;16.03;;;10.90;99.90;;;;;;6209824;23;20428;-75
2022/12/26 08:56:45;;;;;;;16.73;15.90;;;11.00;99.90;;;;;;6209511;23;20508;-75
2022/12/26 08:59:11;;;;;;;17.53;16.73;;;11.00;99.90;;;;;;6209550;23;20408;-75
2022/12/26 09:01:38;;;;;;;15.43;14.53;;;11.00;99.90;;;;;;6209037;23;20408;-75
2022/12/26 09:04:06;;;;;;;16.83;16.03;;;11.10;99.90;;;;;;6209277;23;20877;-74
2022/12/26 09:06:34;;;;;;;17.67;16.60;;;11.00;99.90;;;;;;6210280;23;20465;-75
2022/12/26 09:09:01;;;;;;;18.50;17.40;;;11.10;99.90;;;;;;6211790;23;20412;-75
2022/12/26 09:11:29;;;;;;;23.53;22.43;;;11.20;99.90;;;;;;6211546;23;20408;-74
2022/12/26 09:14:00;;;;;;;29.50;27.83;;;11.20;99.90;;;;;;6209317;23;20598;-72
2022/12/26 09:16:28;;;;;;;31.43;29.47;;;11.30;99.90;;;;;;6211661;23;20420;-73
2022/12/26 09:18:58;;;;;;;33.43;31.60;;;11.20;99.90;;;;;;6209303;23;20416;-73
2022/12/26 09:21:25;;;;;;;33.40;31.37;;;11.10;99.90;;;;;;6210899;23;20393;-74
2022/12/26 09:23:56;;;;;;;35.07;32.87;;;11.20;99.90;;;;;;6210582;23;20451;-74
2022/12/26 09:26:23;;;;;;;35.97;33.83;;;11.10;99.90;;;;;;6211311;23;20393;-73
2022/12/26 09:28:50;;;;;;;34.57;32.70;;;11.00;99.90;;;;;;6211316;23;20508;-74
2022/12/26 09:31:20;;;;;;;35.07;33.17;;;11.00;99.90;;;;;;6211337;23;20420;-75
2022/12/26 09:33:47;;;;;;;35.63;33.63;;;10.90;99.90;;;;;;6210944;23;20836;-77
2022/12/26 09:36:15;;;;;;;34.77;32.87;;;10.80;99.90;;;;;;6211399;23;20404;-75
2022/12/26 09:38:43;;;;;;;34.93;33.03;;;10.80;99.90;;;;;;6211200;23;20404;-75
2022/12/26 09:41:51;;;;;;;35.13;32.93;;;10.70;99.90;;;;;;6211110;23;20436;-76
2022/12/26 09:44:23;;;;;;;34.17;32.37;;;10.70;99.90;;;;;;6209827;23;20420;-76
2022/12/26 09:47:07;;;;;;;36.07;34.10;;;10.70;99.90;;;;;;6211074;23;20508;-75
2022/12/26 09:49:37;;;;;;;35.37;33.27;;;10.70;99.90;;;;;;6210932;23;20948;-76
2022/12/26 09:52:11;;;;;;;36.23;34.23;;;10.60;99.90;;;;;;6210682;23;20420;-76
2022/12/26 09:54:41;;;;;;;37.43;35.43;;;10.70;99.90;;;;;;6210710;23;20400;-75
2022/12/26 09:57:14;;;;;;;39.30;36.80;;;10.80;99.90;;;;;;6211241;23;20416;-74
2022/12/26 09:59:47;;;;;;;38.53;36.23;;;10.90;99.90;;;;;;6210642;23;20396;-73
2022/12/26 10:02:18;;;;;;;40.83;38.60;;;11.00;99.90;;;;;;6210465;23;20440;-73
2022/12/26 10:04:45;;;;;;;40.93;38.43;;;11.10;99.90;;;;;;6210929;23;20408;-73
2022/12/26 10:07:21;;;;;;;38.23;35.93;;;11.10;99.90;;;;;;6210872;23;20409;-75
2022/12/26 10:09:57;;;;;;;38.20;35.90;;;11.00;99.90;;;;;;6208437;23;20447;-73
2022/12/26 10:12:40;;;;;;;38.03;35.40;;;11.00;99.90;;;;;;6210905;23;20393;-73
2022/12/26 10:15:27;;;;;;;38.30;35.70;;;11.00;99.90;;;;;;6210357;23;20472;-73
2022/12/26 10:17:59;;;;;;;36.70;34.70;;;11.00;99.90;;;;;;6208686;23;20419;-74
2022/12/26 10:20:34;;;;;;;38.33;36.00;;;11.10;99.90;;;;;;6210034;23;20390;-74
2022/12/26 10:23:33;;;;;;;40.33;37.83;;;11.20;99.90;;;;;;6210703;23;20715;-74
2022/12/26 10:26:10;;;;;;;40.97;38.33;;;11.30;99.90;;;;;;6211088;23;20725;-74
2022/12/26 10:28:43;;;;;;;41.00;38.60;;;11.50;99.90;;;;;;6210456;23;20416;-75
2022/12/26 10:31:17;;;;;;;40.27;37.80;;;11.50;99.90;;;;;;6210128;23;20425;-74
2022/12/26 10:33:49;;;;;;;41.77;38.90;;;11.60;99.90;;;;;;6210703;23;20393;-75
2022/12/26 10:36:32;;;;;;;41.83;39.03;;;11.40;99.90;;;;;;6210962;23;20397;-74
2022/12/26 10:39:00;;;;;;;40.90;38.50;;;11.20;99.90;;;;;;6210410;23;20400;-74
2022/12/26 10:41:33;;;;;;;40.93;38.33;;;11.10;99.90;;;;;;6210632;23;20734;-74
2022/12/26 10:44:00;;;;;;;38.50;36.43;;;11.20;99.90;;;;;;6210808;23;20400;-74
2022/12/26 10:46:51;;;;;;;42.50;40.10;;;11.10;99.90;;;;;;6210849;23;20416;-74
2022/12/26 10:49:22;;;;;;;36.40;34.27;;;11.10;99.90;;;;;;6210552;23;20423;-75
2022/12/26 10:51:50;;;;;;;39.70;37.23;;;11.00;99.90;;;;;;6210498;23;20416;-75
2022/12/26 10:54:19;;;;;;;39.13;36.63;;;11.00;99.90;;;;;;6210845;23;20416;-74
2022/12/26 10:56:48;;;;;;;40.70;38.03;;;10.90;99.90;;;;;;6210651;23;20445;-74
2022/12/26 10:59:19;;;;;;;38.87;36.33;;;10.90;99.90;;;;;;6211201;23;20467;-74
2022/12/26 11:01:47;;;;;;;38.40;36.10;;;10.80;99.90;;;;;;6211071;23;20404;-75
2022/12/26 11:04:24;;;;;;;39.20;36.80;;;10.70;99.90;;;;;;6210706;23;20413;-76
2022/12/26 11:06:53;;;;;;;37.63;35.10;;;10.80;99.90;;;;;;6210293;23;20392;-77
2022/12/26 11:09:35;;;;;;;36.07;34.00;;;10.80;99.90;;;;;;6210327;23;20487;-77
2022/12/26 11:12:02;;;;;;;36.50;34.00;;;10.80;99.90;;;;;;6210667;23;20484;-79
2022/12/26 11:14:33;;;;;;;38.33;35.97;;;10.90;99.90;;;;;;6210279;23;20424;-77
2022/12/26 11:17:03;;;;;;;38.07;35.87;;;10.80;99.90;;;;;;6210276;23;20381;-77
2022/12/26 11:19:33;;;;;;;35.00;32.80;;;10.90;99.90;;;;;;6210136;23;20752;-78
2022/12/26 11:22:20;;;;;;;38.43;36.03;;;10.80;99.90;;;;;;6210060;23;20428;-78
2022/12/26 11:25:01;;;;;;;36.90;34.50;;;10.90;99.90;;;;;;6209213;23;20494;-77
2022/12/26 11:27:28;;;;;;;36.50;34.10;;;10.90;99.90;;;;;;6209951;23;20833;-80
2022/12/26 11:30:15;;;;;;;34.73;32.77;;;11.00;99.90;;;;;;6210040;23;20805;-81
2022/12/26 11:32:43;;;;;;;35.00;33.20;;;11.00;99.90;;;;;;6210217;23;20705;-83
2022/12/26 11:35:19;;;;;;;33.10;31.30;;;11.10;99.90;;;;;;6209759;23;20419;-81
2022/12/26 11:37:47;;;;;;;33.00;31.20;;;11.20;99.90;;;;;;6210401;23;20665;-80
2022/12/26 11:40:18;;;;;;;34.10;32.20;;;11.20;99.90;;;;;;6209541;23;20404;-79
2022/12/26 11:42:50;;;;;;;33.30;31.40;;;11.10;99.90;;;;;;6209350;23;20462;-77
2022/12/26 11:45:22;;;;;;;33.40;31.60;;;11.20;99.90;;;;;;6209998;23;20417;-79
2022/12/26 11:47:49;;;;;;;31.60;29.90;;;11.20;99.90;;;;;;6212195;23;20501;-77
2022/12/26 11:50:20;;;;;;;30.07;28.47;;;11.20;99.90;;;;;;6211686;23;20471;-79
2022/12/26 11:52:51;;;;;;;31.40;29.80;;;11.20;99.90;;;;;;6211886;23;20884;-76
2022/12/26 11:55:32;;;;;;;31.43;29.40;;;11.20;99.90;;;;;;6214755;23;20725;-78
2022/12/26 11:58:05;;;;;;;31.30;29.13;;;11.20;99.90;;;;;;6211396;23;20412;-76
2022/12/26 12:00:32;;;;;;;30.93;29.13;;;11.20;99.90;;;;;;6211333;23;20436;-78
2022/12/26 12:02:59;;;;;;;31.53;29.77;;;11.20;99.90;;;;;;6211611;23;20412;-78
2022/12/26 12:05:43;;;;;;;31.17;29.43;;;11.20;99.90;;;;;;6209576;23;20413;-78
2022/12/26 12:08:23;;;;;;;30.10;28.40;;;11.30;99.90;;;;;;6209317;23;20400;-76
2022/12/26 12:10:59;;;;;;;28.70;27.10;;;11.30;99.90;;;;;;6209574;23;20432;-77
2022/12/26 12:13:50;;;;;;;27.37;26.00;;;11.40;99.90;;;;;;6209552;23;20397;-76
2022/12/26 12:16:34;;;;;;;28.77;27.27;;;11.40;99.90;;;;;;6209140;23;20408;-77
2022/12/26 12:19:15;;;;;;;25.70;24.40;;;11.50;99.90;;;;;;6209414;23;20396;-76
2022/12/26 12:21:45;;;;;;;24.13;22.97;;;11.80;99.90;;;;;;6209180;23;20719;-77
2022/12/26 12:24:36;;;;;;;21.80;20.80;;;11.70;99.90;;;;;;6209048;23;20440;-76
2022/12/26 12:27:10;;;;;;;19.77;18.83;;;11.80;99.90;;;;;;6209888;23;20392;-77
2022/12/26 12:29:53;;;;;;;18.13;17.23;;;11.80;99.90;;;;;;6208746;23;20440;-77
2022/12/26 12:32:28;;;;;;;16.83;16.13;;;11.80;99.90;;;;;;6208890;23;20393;-77
2022/12/26 12:35:24;;;;;;;17.60;16.80;;;11.90;99.90;;;;;;6209054;23;20388;-77
2022/12/26 12:38:10;;;;;;;17.23;16.43;;;12.00;99.90;;;;;;6209150;23;20397;-75
2022/12/26 12:40:45;;;;;;;17.40;16.60;;;12.10;99.90;;;;;;6208668;23;20389;-77
2022/12/26 12:43:20;;;;;;;16.37;15.67;;;12.10;99.90;;;;;;6203770;23;20424;-77
2022/12/26 12:45:58;;;;;;;16.30;15.50;;;12.10;99.90;;;;;;6210383;23;20594;-75
2022/12/26 12:48:56;;;;;;;16.13;15.47;;;12.00;99.90;;;;;;6210038;23;20393;-76
2022/12/26 12:51:29;;;;;;;16.10;15.50;;;12.10;99.90;;;;;;6209970;23;20440;-76
2022/12/26 12:54:33;;;;;;;15.40;14.70;;;12.00;99.90;;;;;;6209216;23;20676;-76
2022/12/26 12:57:12;;;;;;;14.37;13.73;;;12.10;99.90;;;;;;6193869;23;20416;-76
2022/12/26 12:59:48;;;;;;;14.47;13.87;;;12.10;99.90;;;;;;6209502;23;20389;-75
2022/12/26 13:02:19;;;;;;;13.63;13.00;;;12.30;99.90;;;;;;6209540;23;20416;-75
2022/12/26 13:04:51;;;;;;;13.80;13.20;;;12.30;99.90;;;;;;6209759;23;20388;-75
2022/12/26 13:07:22;;;;;;;13.20;12.70;;;12.30;99.90;;;;;;6209984;23;20434;-75
2022/12/26 13:09:56;;;;;;;12.70;12.30;;;12.20;99.90;;;;;;6209450;23;20411;-75
2022/12/26 13:12:26;;;;;;;13.30;12.80;;;12.20;99.90;;;;;;6209575;23;20388;-75
2022/12/26 13:14:58;;;;;;;12.40;12.00;;;12.20;99.90;;;;;;6209445;23;20422;-77
2022/12/26 13:17:30;;;;;;;12.63;12.10;;;12.20;99.90;;;;;;6209563;23;20493;-77
2022/12/26 13:20:03;;;;;;;12.00;11.47;;;12.30;99.90;;;;;;6209670;23;20389;-76
2022/12/26 13:24:22;;;;;;;12.93;12.33;;;12.20;99.90;;;;;;6210143;23;20435;-76
2022/12/26 13:25:24;;;;;;;12.40;12.00;;;12.20;99.90;;;;;;6209183;23;20486;-76
2022/12/26 13:27:53;;;;;;;12.20;11.80;;;12.20;99.90;;;;;;6209949;23;20438;-77
2022/12/26 13:30:20;;;;;;;12.30;11.80;;;12.20;99.90;;;;;;6210603;23;20753;-76
2022/12/26 13:32:48;;;;;;;11.40;11.07;;;12.20;99.90;;;;;;6210688;23;20916;-77
2022/12/26 13:35:51;;;;;;;12.17;11.77;;;12.20;99.90;;;;;;6209500;23;20408;-77
2022/12/26 13:38:18;;;;;;;12.87;12.47;;;12.20;99.90;;;;;;6210405;23;20478;-76
2022/12/26 13:40:47;;;;;;;13.10;12.60;;;12.20;99.90;;;;;;6210016;23;20460;-76
2022/12/26 13:46:04;;;;;;;12.27;11.87;;;12.20;99.90;;;;;;6209383;23;20371;-75
2022/12/26 13:48:58;;;;;;;13.30;12.80;;;12.20;99.90;;;;;;6209415;23;20413;-74
2022/12/26 13:51:49;;;;;;;12.87;12.27;;;12.30;99.90;;;;;;6209764;23;20519;-76
2022/12/26 13:54:18;;;;;;;13.00;12.60;;;12.40;99.90;;;;;;6209148;23;20857;-75
2022/12/26 13:57:37;;;;;;;12.73;12.33;;;12.40;99.90;;;;;;6209685;23;20431;-75
2022/12/26 14:00:11;;;;;;;13.30;12.90;;;12.40;99.90;;;;;;6209377;23;20519;-76
2022/12/26 14:03:09;;;;;;;12.67;12.27;;;12.40;99.90;;;;;;6209080;23;20404;-76
2022/12/26 14:05:44;;;;;;;13.73;13.23;;;12.30;99.90;;;;;;6209044;23;20416;-76
2022/12/26 14:08:21;;;;;;;14.40;13.80;;;12.30;99.90;;;;;;6209508;23;20422;-74
2022/12/26 14:10:56;;;;;;;13.20;12.80;;;12.30;99.90;;;;;;6209351;23;20748;-76
2022/12/26 14:13:52;;;;;;;13.87;13.40;;;12.20;99.90;;;;;;6208863;23;20392;-76
2022/12/26 14:16:29;;;;;;;14.40;13.90;;;12.20;99.90;;;;;;6209503;23;20469;-76
2022/12/26 14:19:06;;;;;;;13.57;13.07;;;12.20;99.90;;;;;;6208709;23;20397;-76
2022/12/26 14:21:45;;;;;;;14.50;14.00;;;12.20;99.90;;;;;;6209328;23;20401;-76
2022/12/26 14:27:35;;;;;;;15.07;14.47;;;12.20;99.90;;;;;;6188623;23;20400;-76
2022/12/26 14:30:21;;;;;;;14.30;13.80;;;12.20;99.90;;;;;;6208635;23;20515;-78
2022/12/26 14:33:02;;;;;;;14.60;14.10;;;12.30;99.90;;;;;;6209232;23;20421;-77
2022/12/26 14:35:35;;;;;;;14.03;13.63;;;12.30;99.90;;;;;;6210466;23;20393;-76
2022/12/26 14:38:18;;;;;;;14.30;13.80;;;12.20;99.90;;;;;;6210955;23;20445;-76
2022/12/26 14:40:59;;;;;;;13.50;12.90;;;12.20;99.90;;;;;;6208365;23;20469;-76
2022/12/26 14:43:36;;;;;;;13.83;13.23;;;12.10;99.90;;;;;;6208694;23;20437;-77
2022/12/26 14:46:07;;;;;;;14.10;13.50;;;12.10;99.90;;;;;;6208923;23;20381;-76
2022/12/26 14:49:21;;;;;;;14.10;13.60;;;12.10;99.90;;;;;;6209315;23;20389;-76
2022/12/26 14:51:48;;;;;;;14.00;13.50;;;12.10;99.90;;;;;;6146209;23;20439;-77
2022/12/26 14:54:45;;;;;;;14.67;14.17;;;12.00;99.90;;;;;;6200733;23;20739;-77
2022/12/26 14:57:45;;;;;;;14.47;13.97;;;12.00;99.90;;;;;;6208844;23;20393;-77
2022/12/26 15:00:29;;;;;;;13.80;13.40;;;12.00;99.90;;;;;;6208298;23;20397;-77